Little Piney Creek (Missouri), Newburg (06932000)

StateMissouriCurrentPotential (93 cfs)
RiverLittle Piney CreekFlood - The river is flooding. Obstacles can be treacherous or deadly. The river should be avoided at this stage for casual trips and definitely for the inexperienced. Trips should be attempted only with protective gear and equipment.Flood(none)
Updated2019-10-13 20:00 (1 hour ago)High - The river is high and potentially dangerous, especially for the young and / or inexperienced. Normal stream obstacles are sometimes difficult to navigate. Extended distances can be attempted, but canoe travel may not be advisable.High(none)
Discharge93 cfs (median: 62 cfs)Good - Conditions are ideal for a canoe or kayak. Boats typically will drag on fewer than one-quarter of riffles, if at all, and portages are unnecessary or rare. Normal float lengths can be attempted without a problem.Good(none)
Height2.18 feetLow - River is low but can still be floated. Some riffles are okay but most come with significant dragging and might need a portage. Float lengths should be reduced to accommodate low flow, dragging, and portages.Low140
TrendSteady (falling over 24 hours)Poor - River is too low to float comfortably. Most or all riffles will drag or must be portaged and some obstacles (such as slick shelf rock) cause undue problems. Avoid the river at this stage for casual paddling trips.Poor(none)
USGSExternal icon USGS Site for Newburg (06932000)LocationExternal icon Google Maps

Trending Data

Plot Image
ObservationHeightDischargeMaximum
Discharge
Minimum
Discharge
Mean
Discharge
P05P10P20P25P50
(Median)
P75P80P90P95
2019-10-13 20:00 2.18 93 709 (1950) 24 (1957) 84 34 38 45 47 62 83 90 123 274
2019-10-13 19:00 2.18 93 709 (1950) 24 (1957) 84 34 38 45 47 62 83 90 123 274
2019-10-13 18:00 2.19 95 709 (1950) 24 (1957) 84 34 38 45 47 62 83 90 123 274
2019-10-13 17:00 2.18 93 709 (1950) 24 (1957) 84 34 38 45 47 62 83 90 123 274
2019-10-13 16:00 2.18 93 709 (1950) 24 (1957) 84 34 38 45 47 62 83 90 123 274
2019-10-13 15:00 2.19 95 709 (1950) 24 (1957) 84 34 38 45 47 62 83 90 123 274
2019-10-13 14:00 2.18 93 709 (1950) 24 (1957) 84 34 38 45 47 62 83 90 123 274
2019-10-13 13:00 2.19 95 709 (1950) 24 (1957) 84 34 38 45 47 62 83 90 123 274
2019-10-13 12:00 2.19 95 709 (1950) 24 (1957) 84 34 38 45 47 62 83 90 123 274
2019-10-13 11:00 2.19 95 709 (1950) 24 (1957) 84 34 38 45 47 62 83 90 123 274
2019-10-13 10:00 2.19 95 709 (1950) 24 (1957) 84 34 38 45 47 62 83 90 123 274
2019-10-13 09:00 2.19 95 709 (1950) 24 (1957) 84 34 38 45 47 62 83 90 123 274
2019-10-13 08:00 2.19 95 709 (1950) 24 (1957) 84 34 38 45 47 62 83 90 123 274
2019-10-13 07:00 2.19 95 709 (1950) 24 (1957) 84 34 38 45 47 62 83 90 123 274
2019-10-13 06:00 2.19 95 709 (1950) 24 (1957) 84 34 38 45 47 62 83 90 123 274
2019-10-13 05:00 2.19 95 709 (1950) 24 (1957) 84 34 38 45 47 62 83 90 123 274
2019-10-13 04:00 2.19 95 709 (1950) 24 (1957) 84 34 38 45 47 62 83 90 123 274
2019-10-13 03:00 2.19 95 709 (1950) 24 (1957) 84 34 38 45 47 62 83 90 123 274
2019-10-13 02:00 2.20 96 709 (1950) 24 (1957) 84 34 38 45 47 62 83 90 123 274
2019-10-13 01:00 2.19 95 709 (1950) 24 (1957) 84 34 38 45 47 62 83 90 123 274
2019-10-13 00:00 2.20 96 709 (1950) 24 (1957) 84 34 38 45 47 62 83 90 123 274
2019-10-12 23:00 2.20 96 1650 (1950) 24 (1957) 105 33 38 45 48 62 80 85 126 185
2019-10-12 22:00 2.20 96 1650 (1950) 24 (1957) 105 33 38 45 48 62 80 85 126 185
2019-10-12 21:00 2.20 96 1650 (1950) 24 (1957) 105 33 38 45 48 62 80 85 126 185
2019-10-12 20:00 2.20 96 1650 (1950) 24 (1957) 105 33 38 45 48 62 80 85 126 185
2019-10-12 19:00 2.21 97 1650 (1950) 24 (1957) 105 33 38 45 48 62 80 85 126 185
2019-10-12 18:00 2.21 97 1650 (1950) 24 (1957) 105 33 38 45 48 62 80 85 126 185
2019-10-12 17:00 2.21 97 1650 (1950) 24 (1957) 105 33 38 45 48 62 80 85 126 185
2019-10-12 16:00 2.21 97 1650 (1950) 24 (1957) 105 33 38 45 48 62 80 85 126 185
2019-10-12 15:00 2.21 97 1650 (1950) 24 (1957) 105 33 38 45 48 62 80 85 126 185
2019-10-12 14:00 2.21 97 1650 (1950) 24 (1957) 105 33 38 45 48 62 80 85 126 185
2019-10-12 13:00 2.21 97 1650 (1950) 24 (1957) 105 33 38 45 48 62 80 85 126 185
2019-10-12 12:00 2.21 97 1650 (1950) 24 (1957) 105 33 38 45 48 62 80 85 126 185
2019-10-12 11:00 2.22 99 1650 (1950) 24 (1957) 105 33 38 45 48 62 80 85 126 185
2019-10-12 10:00 2.22 99 1650 (1950) 24 (1957) 105 33 38 45 48 62 80 85 126 185
2019-10-12 09:00 2.22 99 1650 (1950) 24 (1957) 105 33 38 45 48 62 80 85 126 185
2019-10-12 08:00 2.23 100 1650 (1950) 24 (1957) 105 33 38 45 48 62 80 85 126 185
2019-10-12 07:00 2.23 100 1650 (1950) 24 (1957) 105 33 38 45 48 62 80 85 126 185
2019-10-12 06:00 2.24 101 1650 (1950) 24 (1957) 105 33 38 45 48 62 80 85 126 185
2019-10-12 05:00 2.25 103 1650 (1950) 24 (1957) 105 33 38 45 48 62 80 85 126 185
2019-10-12 04:00 2.25 103 1650 (1950) 24 (1957) 105 33 38 45 48 62 80 85 126 185
2019-10-12 03:00 2.25 103 1650 (1950) 24 (1957) 105 33 38 45 48 62 80 85 126 185
2019-10-12 02:00 2.26 104 1650 (1950) 24 (1957) 105 33 38 45 48 62 80 85 126 185
2019-10-12 01:00 2.26 104 1650 (1950) 24 (1957) 105 33 38 45 48 62 80 85 126 185
2019-10-12 00:00 2.27 106 1650 (1950) 24 (1957) 105 33 38 45 48 62 80 85 126 185
2019-10-11 23:00 2.27 106 6090 (1950) 24 (1957) 139 33 36 45 47 61 80 84 115 145
2019-10-11 22:00 2.28 107 6090 (1950) 24 (1957) 139 33 36 45 47 61 80 84 115 145
2019-10-11 21:00 2.29 108 6090 (1950) 24 (1957) 139 33 36 45 47 61 80 84 115 145
2019-10-11 20:00 2.30 110 6090 (1950) 24 (1957) 139 33 36 45 47 61 80 84 115 145
2019-10-11 19:00 2.31 111 6090 (1950) 24 (1957) 139 33 36 45 47 61 80 84 115 145
2019-10-11 18:00 2.33 114 6090 (1950) 24 (1957) 139 33 36 45 47 61 80 84 115 145
2019-10-11 17:00 2.34 116 6090 (1950) 24 (1957) 139 33 36 45 47 61 80 84 115 145
2019-10-11 16:00 2.36 119 6090 (1950) 24 (1957) 139 33 36 45 47 61 80 84 115 145
2019-10-11 15:00 2.37 120 6090 (1950) 24 (1957) 139 33 36 45 47 61 80 84 115 145
2019-10-11 14:00 2.40 125 6090 (1950) 24 (1957) 139 33 36 45 47 61 80 84 115 145
2019-10-11 13:00 2.42 128 6090 (1950) 24 (1957) 139 33 36 45 47 61 80 84 115 145
2019-10-11 12:00 2.44 131 6090 (1950) 24 (1957) 139 33 36 45 47 61 80 84 115 145
2019-10-11 11:00 2.44 131 6090 (1950) 24 (1957) 139 33 36 45 47 61 80 84 115 145
2019-10-11 10:00 2.41 126 6090 (1950) 24 (1957) 139 33 36 45 47 61 80 84 115 145
2019-10-11 09:00 2.41 126 6090 (1950) 24 (1957) 139 33 36 45 47 61 80 84 115 145
2019-10-11 08:00 2.41 126 6090 (1950) 24 (1957) 139 33 36 45 47 61 80 84 115 145
2019-10-11 07:00 2.40 125 6090 (1950) 24 (1957) 139 33 36 45 47 61 80 84 115 145
2019-10-11 06:00 2.41 126 6090 (1950) 24 (1957) 139 33 36 45 47 61 80 84 115 145
2019-10-11 05:00 2.41 126 6090 (1950) 24 (1957) 139 33 36 45 47 61 80 84 115 145
2019-10-11 04:00 2.41 126 6090 (1950) 24 (1957) 139 33 36 45 47 61 80 84 115 145
2019-10-11 03:00 2.40 125 6090 (1950) 24 (1957) 139 33 36 45 47 61 80 84 115 145
2019-10-11 02:00 2.38 122 6090 (1950) 24 (1957) 139 33 36 45 47 61 80 84 115 145
2019-10-11 01:00 2.36 119 6090 (1950) 24 (1957) 139 33 36 45 47 61 80 84 115 145
2019-10-11 00:00 2.33 114 6090 (1950) 24 (1957) 139 33 36 45 47 61 80 84 115 145
2019-10-10 23:00 2.32 113 1010 (2010) 24 (1957) 81 33 36 44 48 62 79 82 124 194
2019-10-10 22:00 2.30 110 1010 (2010) 24 (1957) 81 33 36 44 48 62 79 82 124 194
2019-10-10 21:00 2.29 108 1010 (2010) 24 (1957) 81 33 36 44 48 62 79 82 124 194
2019-10-10 20:00 2.29 108 1010 (2010) 24 (1957) 81 33 36 44 48 62 79 82 124 194
2019-10-10 19:00 2.27 106 1010 (2010) 24 (1957) 81 33 36 44 48 62 79 82 124 194
2019-10-10 18:00 2.25 103 1010 (2010) 24 (1957) 81 33 36 44 48 62 79 82 124 194
2019-10-10 17:00 2.23 100 1010 (2010) 24 (1957) 81 33 36 44 48 62 79 82 124 194
2019-10-10 16:00 2.19 95 1010 (2010) 24 (1957) 81 33 36 44 48 62 79 82 124 194
2019-10-10 15:00 2.16 91 1010 (2010) 24 (1957) 81 33 36 44 48 62 79 82 124 194
2019-10-10 14:00 2.14 88 1010 (2010) 24 (1957) 81 33 36 44 48 62 79 82 124 194
2019-10-10 13:00 2.14 88 1010 (2010) 24 (1957) 81 33 36 44 48 62 79 82 124 194
2019-10-10 12:00 2.13 87 1010 (2010) 24 (1957) 81 33 36 44 48 62 79 82 124 194
2019-10-10 11:00 2.14 88 1010 (2010) 24 (1957) 81 33 36 44 48 62 79 82 124 194
2019-10-10 10:00 2.13 87 1010 (2010) 24 (1957) 81 33 36 44 48 62 79 82 124 194
2019-10-10 09:00 2.13 87 1010 (2010) 24 (1957) 81 33 36 44 48 62 79 82 124 194
2019-10-10 08:00 2.13 87 1010 (2010) 24 (1957) 81 33 36 44 48 62 79 82 124 194
2019-10-10 07:00 2.13 87 1010 (2010) 24 (1957) 81 33 36 44 48 62 79 82 124 194
2019-10-10 06:00 2.13 87 1010 (2010) 24 (1957) 81 33 36 44 48 62 79 82 124 194
2019-10-10 05:00 2.13 87 1010 (2010) 24 (1957) 81 33 36 44 48 62 79 82 124 194
2019-10-10 04:00 2.13 87 1010 (2010) 24 (1957) 81 33 36 44 48 62 79 82 124 194
2019-10-10 03:00 2.13 87 1010 (2010) 24 (1957) 81 33 36 44 48 62 79 82 124 194
2019-10-10 02:00 2.13 87 1010 (2010) 24 (1957) 81 33 36 44 48 62 79 82 124 194
2019-10-10 01:00 2.13 87 1010 (2010) 24 (1957) 81 33 36 44 48 62 79 82 124 194
2019-10-10 00:00 2.13 87 1010 (2010) 24 (1957) 81 33 36 44 48 62 79 82 124 194
2019-10-09 23:00 2.13 87 5110 (2010) 25 (1957) 128 33 36 43 49 62 78 83 114 192
2019-10-09 22:00 2.13 87 5110 (2010) 25 (1957) 128 33 36 43 49 62 78 83 114 192
2019-10-09 21:00 2.12 86 5110 (2010) 25 (1957) 128 33 36 43 49 62 78 83 114 192
2019-10-09 20:00 2.13 87 5110 (2010) 25 (1957) 128 33 36 43 49 62 78 83 114 192
2019-10-09 19:00 2.13 87 5110 (2010) 25 (1957) 128 33 36 43 49 62 78 83 114 192
2019-10-09 18:00 2.13 87 5110 (2010) 25 (1957) 128 33 36 43 49 62 78 83 114 192
2019-10-09 17:00 2.13 87 5110 (2010) 25 (1957) 128 33 36 43 49 62 78 83 114 192
2019-10-09 16:00 2.13 87 5110 (2010) 25 (1957) 128 33 36 43 49 62 78 83 114 192
2019-10-09 15:00 2.13 87 5110 (2010) 25 (1957) 128 33 36 43 49 62 78 83 114 192
2019-10-09 14:00 2.13 87 5110 (2010) 25 (1957) 128 33 36 43 49 62 78 83 114 192
2019-10-09 13:00 2.13 87 5110 (2010) 25 (1957) 128 33 36 43 49 62 78 83 114 192
2019-10-09 12:00 2.13 87 5110 (2010) 25 (1957) 128 33 36 43 49 62 78 83 114 192
2019-10-09 11:00 2.13 87 5110 (2010) 25 (1957) 128 33 36 43 49 62 78 83 114 192
2019-10-09 10:00 2.13 87 5110 (2010) 25 (1957) 128 33 36 43 49 62 78 83 114 192
2019-10-09 09:00 2.13 87 5110 (2010) 25 (1957) 128 33 36 43 49 62 78 83 114 192
2019-10-09 08:00 2.13 87 5110 (2010) 25 (1957) 128 33 36 43 49 62 78 83 114 192
2019-10-09 07:00 2.13 87 5110 (2010) 25 (1957) 128 33 36 43 49 62 78 83 114 192
2019-10-09 06:00 2.13 87 5110 (2010) 25 (1957) 128 33 36 43 49 62 78 83 114 192
2019-10-09 05:00 2.13 87 5110 (2010) 25 (1957) 128 33 36 43 49 62 78 83 114 192
2019-10-09 04:00 2.13 87 5110 (2010) 25 (1957) 128 33 36 43 49 62 78 83 114 192
2019-10-09 03:00 2.13 87 5110 (2010) 25 (1957) 128 33 36 43 49 62 78 83 114 192
2019-10-09 02:00 2.13 87 5110 (2010) 25 (1957) 128 33 36 43 49 62 78 83 114 192
2019-10-09 01:00 2.13 87 5110 (2010) 25 (1957) 128 33 36 43 49 62 78 83 114 192
2019-10-09 00:00 2.13 87 5110 (2010) 25 (1957) 128 33 36 43 49 62 78 83 114 192
2019-10-08 23:00 2.13 87 931 (2010) 25 (1957) 85 33 36 42 48 62 81 87 146 219
2019-10-08 22:00 2.13 87 931 (2010) 25 (1957) 85 33 36 42 48 62 81 87 146 219
2019-10-08 21:00 2.13 87 931 (2010) 25 (1957) 85 33 36 42 48 62 81 87 146 219
2019-10-08 20:00 2.13 87 931 (2010) 25 (1957) 85 33 36 42 48 62 81 87 146 219
2019-10-08 19:00 2.13 87 931 (2010) 25 (1957) 85 33 36 42 48 62 81 87 146 219
2019-10-08 18:00 2.13 87 931 (2010) 25 (1957) 85 33 36 42 48 62 81 87 146 219
2019-10-08 17:00 2.13 87 931 (2010) 25 (1957) 85 33 36 42 48 62 81 87 146 219
2019-10-08 16:00 2.13 87 931 (2010) 25 (1957) 85 33 36 42 48 62 81 87 146 219
2019-10-08 15:00 2.13 87 931 (2010) 25 (1957) 85 33 36 42 48 62 81 87 146 219
2019-10-08 14:00 2.14 88 931 (2010) 25 (1957) 85 33 36 42 48 62 81 87 146 219
2019-10-08 13:00 2.13 87 931 (2010) 25 (1957) 85 33 36 42 48 62 81 87 146 219
2019-10-08 12:00 2.13 87 931 (2010) 25 (1957) 85 33 36 42 48 62 81 87 146 219
2019-10-08 11:00 2.13 87 931 (2010) 25 (1957) 85 33 36 42 48 62 81 87 146 219
2019-10-08 10:00 2.13 87 931 (2010) 25 (1957) 85 33 36 42 48 62 81 87 146 219
2019-10-08 09:00 2.13 87 931 (2010) 25 (1957) 85 33 36 42 48 62 81 87 146 219
2019-10-08 08:00 2.13 87 931 (2010) 25 (1957) 85 33 36 42 48 62 81 87 146 219
2019-10-08 07:00 2.13 87 931 (2010) 25 (1957) 85 33 36 42 48 62 81 87 146 219
2019-10-08 06:00 2.13 87 931 (2010) 25 (1957) 85 33 36 42 48 62 81 87 146 219
2019-10-08 05:00 2.13 87 931 (2010) 25 (1957) 85 33 36 42 48 62 81 87 146 219
2019-10-08 04:00 2.13 87 931 (2010) 25 (1957) 85 33 36 42 48 62 81 87 146 219
2019-10-08 03:00 2.13 87 931 (2010) 25 (1957) 85 33 36 42 48 62 81 87 146 219
2019-10-08 02:00 2.12 86 931 (2010) 25 (1957) 85 33 36 42 48 62 81 87 146 219
2019-10-08 01:00 2.12 86 931 (2010) 25 (1957) 85 33 36 42 48 62 81 87 146 219
2019-10-08 00:00 2.12 86 931 (2010) 25 (1957) 85 33 36 42 48 62 81 87 146 219
2019-10-07 23:00 2.11 84 709 (1950) 25 (1957) 78 33 36 42 48 63 82 84 118 181
2019-10-07 22:00 2.12 86 709 (1950) 25 (1957) 78 33 36 42 48 63 82 84 118 181
2019-10-07 21:00 2.12 86 709 (1950) 25 (1957) 78 33 36 42 48 63 82 84 118 181
2019-10-07 20:00 2.12 86 709 (1950) 25 (1957) 78 33 36 42 48 63 82 84 118 181
2019-10-07 19:00 2.12 86 709 (1950) 25 (1957) 78 33 36 42 48 63 82 84 118 181
2019-10-07 18:00 2.13 87 709 (1950) 25 (1957) 78 33 36 42 48 63 82 84 118 181
2019-10-07 17:00 2.12 86 709 (1950) 25 (1957) 78 33 36 42 48 63 82 84 118 181
2019-10-07 16:00 2.13 87 709 (1950) 25 (1957) 78 33 36 42 48 63 82 84 118 181
2019-10-07 15:00 2.13 87 709 (1950) 25 (1957) 78 33 36 42 48 63 82 84 118 181
2019-10-07 14:00 2.13 87 709 (1950) 25 (1957) 78 33 36 42 48 63 82 84 118 181
2019-10-07 13:00 2.13 87 709 (1950) 25 (1957) 78 33 36 42 48 63 82 84 118 181
2019-10-07 12:00 2.12 86 709 (1950) 25 (1957) 78 33 36 42 48 63 82 84 118 181
2019-10-07 11:00 2.13 87 709 (1950) 25 (1957) 78 33 36 42 48 63 82 84 118 181
2019-10-07 10:00 2.13 87 709 (1950) 25 (1957) 78 33 36 42 48 63 82 84 118 181
2019-10-07 09:00 2.13 87 709 (1950) 25 (1957) 78 33 36 42 48 63 82 84 118 181
2019-10-07 08:00 2.13 87 709 (1950) 25 (1957) 78 33 36 42 48 63 82 84 118 181
2019-10-07 07:00 2.12 86 709 (1950) 25 (1957) 78 33 36 42 48 63 82 84 118 181
2019-10-07 06:00 2.13 87 709 (1950) 25 (1957) 78 33 36 42 48 63 82 84 118 181
2019-10-07 05:00 2.12 86 709 (1950) 25 (1957) 78 33 36 42 48 63 82 84 118 181
2019-10-07 04:00 2.11 84 709 (1950) 25 (1957) 78 33 36 42 48 63 82 84 118 181
2019-10-07 03:00 2.11 84 709 (1950) 25 (1957) 78 33 36 42 48 63 82 84 118 181
2019-10-07 02:00 2.10 83 709 (1950) 25 (1957) 78 33 36 42 48 63 82 84 118 181
2019-10-07 01:00 2.10 83 709 (1950) 25 (1957) 78 33 36 42 48 63 82 84 118 181
2019-10-07 00:00 2.10 83 709 (1950) 25 (1957) 78 33 36 42 48 63 82 84 118 181
2019-10-06 23:00 2.10 83 2940 (1950) 26 (1957) 105 34 37 42 47 62 82 87 101 203
2019-10-06 22:00 2.10 83 2940 (1950) 26 (1957) 105 34 37 42 47 62 82 87 101 203
2019-10-06 21:00 2.11 84 2940 (1950) 26 (1957) 105 34 37 42 47 62 82 87 101 203
2019-10-06 20:00 2.10 83 2940 (1950) 26 (1957) 105 34 37 42 47 62 82 87 101 203
2019-10-06 19:00 2.11 84 2940 (1950) 26 (1957) 105 34 37 42 47 62 82 87 101 203
2019-10-06 18:00 2.11 84 2940 (1950) 26 (1957) 105 34 37 42 47 62 82 87 101 203
2019-10-06 17:00 2.11 84 2940 (1950) 26 (1957) 105 34 37 42 47 62 82 87 101 203
2019-10-06 16:00 2.11 84 2940 (1950) 26 (1957) 105 34 37 42 47 62 82 87 101 203
2019-10-06 15:00 2.12 86 2940 (1950) 26 (1957) 105 34 37 42 47 62 82 87 101 203
2019-10-06 14:00 2.11 84 2940 (1950) 26 (1957) 105 34 37 42 47 62 82 87 101 203
2019-10-06 13:00 2.12 86 2940 (1950) 26 (1957) 105 34 37 42 47 62 82 87 101 203
2019-10-06 12:00 2.12 86 2940 (1950) 26 (1957) 105 34 37 42 47 62 82 87 101 203
2019-10-06 11:00 2.12 86 2940 (1950) 26 (1957) 105 34 37 42 47 62 82 87 101 203
2019-10-06 10:00 2.11 84 2940 (1950) 26 (1957) 105 34 37 42 47 62 82 87 101 203
2019-10-06 09:00 2.11 84 2940 (1950) 26 (1957) 105 34 37 42 47 62 82 87 101 203
2019-10-06 08:00 2.11 84 2940 (1950) 26 (1957) 105 34 37 42 47 62 82 87 101 203
2019-10-06 07:00 2.11 84 2940 (1950) 26 (1957) 105 34 37 42 47 62 82 87 101 203
2019-10-06 06:00 2.12 86 2940 (1950) 26 (1957) 105 34 37 42 47 62 82 87 101 203
2019-10-06 05:00 2.12 86 2940 (1950) 26 (1957) 105 34 37 42 47 62 82 87 101 203
2019-10-06 04:00 2.13 87 2940 (1950) 26 (1957) 105 34 37 42 47 62 82 87 101 203
2019-10-06 03:00 2.12 86 2940 (1950) 26 (1957) 105 34 37 42 47 62 82 87 101 203
2019-10-06 02:00 2.11 84 2940 (1950) 26 (1957) 105 34 37 42 47 62 82 87 101 203
2019-10-06 01:00 2.10 83 2940 (1950) 26 (1957) 105 34 37 42 47 62 82 87 101 203
2019-10-06 00:00 2.09 82 2940 (1950) 26 (1957) 105 34 37 42 47 62 82 87 101 203

A total of 189 rows are displayed for years 1930 through 2018.

Trips for Little Piney Creek (Missouri), Newburg (06932000)

DateStartEndDistanceConditionDischargeHeightFishingDetails
Click for details2011-07-10 Newburg Gasconade River Total trip distance: 6.0 miles4.8 Low 114 2.32 None NoneNone Bowe, Michelle
Edmond, Brian
Edmond, Julian
Bowe, Michelle; Edmond, Brian; Edmond, Julian
This was Julian's first float trip. Many areas could have been attempted, especially with a kayak, but we were cautious.This was Julian's first float trip.  Many areas could have been attempted, especially with a kayak, but we were cautious. USGS Gauge Data:
Newburg (06932000)
Discharge: 114
Height: 2.32
<b>USGS Gauge Data:</b></br />Newburg (06932000)<br />Discharge: 114<br />Height: 2.32
Source: EdmondSource: Edmond

A total of 1 rows are displayed.

Trip Summary for Little Piney Creek (Missouri), Newburg (06932000)

Miles4.8
Trips1
People3
Dates1
Years1
Months1
Rows1
Sources1

Condition Descriptions

Fishing Conditions

Fish Species

Notes

Classic Trip List

The classic River Trips application is still available for use. It is updated with the new system using a data retrofit. It is no longer maintained. The original River Trips application is no longer updated (as of 1 Dec 2016) but can be checked for errors or for the condition of the data before it was converted to the new system.